»·PEaware :: N612C KBFL-KMHV

N612C :: KBFL-KMHV

FLIGHT INFORMATION

Flight Status: Arrived
Operator: Privately registered:
United States
More flights under this callsign
Pilot: Don H. (15606)
Aircraft: CESSNA 172 SKYHAWK
(C172)
More flights by this aircraft type
Origin: KBFL Meadows
United States
Destination: KMHV Mojave
United States
More flights between these airports :: More routes between these airports
Route: +
File this flight plan on PilotEdge
Remarks:
Altitude:
(Current/Filed)
0ft
Speed:
(Current/Filed)
0kts
Departed: 09-Oct-18 11:14 AM
Arrived: 09-Oct-18 11:49 AM
Distance/Time
Traveled:
49nm/0:35
Distance/Time
To Go:
Arrived

Flight Plot

Page will automatically refresh every two minutes.


Map Options




Map Legend


Flown Route
Filed Route
Departure Airport
Arrival Airport
Navaid (VOR, NDB)
Fix

Horizontal Profiles

Position Reports

Time Latitude Longitude Heading Altitude Ground
Speed
09-Oct-18 11:08 35.435703 -119.052043 179 510ft 0kts
09-Oct-18 11:09 35.435487 -119.052873 267 510ft 7kts
09-Oct-18 11:10 35.435312 -119.053374 236 510ft 8kts
09-Oct-18 11:11 35.433773 -119.053859 132 510ft 18kts
09-Oct-18 11:12 35.430077 -119.049430 135 510ft 13kts
09-Oct-18 11:13 35.426064 -119.044594 152 510ft 15kts
09-Oct-18 11:14 35.425693 -119.044583 205 510ft 0kts
09-Oct-18 11:15 35.425633 -119.044747 250 510ft 0kts
09-Oct-18 11:16 35.430153 -119.051709 311 723ft 65kts
09-Oct-18 11:17 35.446481 -119.072024 317 1556ft 91kts
09-Oct-18 11:18 35.465443 -119.070343 54 2226ft 93kts
09-Oct-18 11:19 35.457486 -119.043736 130 2826ft 96kts
09-Oct-18 11:20 35.445480 -119.017993 112 3626ft 82kts
09-Oct-18 11:21 35.438607 -118.991634 102 4323ft 81kts
09-Oct-18 11:22 35.435594 -118.964530 92 4976ft 80kts
09-Oct-18 11:23 35.436466 -118.936588 85 5525ft 90kts
09-Oct-18 11:24 35.425812 -118.906480 116 5926ft 100kts
09-Oct-18 11:25 35.413131 -118.875629 116 6326ft 102kts
09-Oct-18 11:26 35.400374 -118.844555 116 6726ft 101kts
09-Oct-18 11:27 35.387810 -118.813905 116 7124ft 100kts
09-Oct-18 11:28 35.371619 -118.786739 143 7516ft 99kts
09-Oct-18 11:29 35.355201 -118.760528 119 7915ft 98kts
09-Oct-18 11:30 35.337843 -118.724046 119 7506ft 122kts
09-Oct-18 11:31 35.321009 -118.688916 119 7504ft 118kts
09-Oct-18 11:32 35.304200 -118.654349 120 7503ft 118kts
09-Oct-18 11:33 35.287435 -118.620291 120 7527ft 117kts
09-Oct-18 11:34 35.270846 -118.585933 120 7527ft 117kts
09-Oct-18 11:35 35.254191 -118.551394 120 7527ft 117kts
09-Oct-18 11:36 35.237549 -118.516897 120 7526ft 117kts
09-Oct-18 11:37 35.220961 -118.482562 120 7526ft 117kts
09-Oct-18 11:38 35.204283 -118.448072 120 7511ft 119kts
09-Oct-18 11:39 35.186178 -118.410698 120 7067ft 133kts
09-Oct-18 11:40 35.167551 -118.372321 120 6534ft 126kts
09-Oct-18 11:41 35.150735 -118.329837 111 6336ft 115kts
09-Oct-18 11:42 35.141335 -118.299904 110 6302ft 114kts
09-Oct-18 11:43 35.129634 -118.262568 110 6102ft 118kts
09-Oct-18 11:44 35.118943 -118.225928 94 5131ft 136kts
09-Oct-18 11:45 35.108655 -118.185633 140 4060ft 103kts
09-Oct-18 11:46 35.088574 -118.163428 139 3898ft 97kts
09-Oct-18 11:47 35.077219 -118.134973 85 3876ft 107kts
09-Oct-18 11:48 35.076265 -118.096845 122 3649ft 112kts
09-Oct-18 11:49 35.060280 -118.113999 256 3376ft 112kts
09-Oct-18 11:50 35.059148 -118.147340 265 2795ft 69kts
09-Oct-18 11:51 35.059190 -118.155830 270 2795ft 27kts
09-Oct-18 11:52 35.059444 -118.157564 190 2795ft 12kts
09-Oct-18 11:53 35.057615 -118.157794 176 2795ft 0kts
09-Oct-18 11:54 35.057040 -118.158026 272 2795ft 0kts
09-Oct-18 11:55 35.057040 -118.158025 272 2795ft 0kts
09-Oct-18 11:56 35.057040 -118.158025 272 2795ft 0kts
09-Oct-18 11:57 35.057040 -118.158025 272 2795ft 0kts
09-Oct-18 11:58 35.057040 -118.158025 272 2795ft 0kts
09-Oct-18 11:59 35.057040 -118.158025 272 2795ft 0kts
09-Oct-18 12:00 35.057040 -118.158025 272 2795ft 0kts
09-Oct-18 12:01 35.057040 -118.158025 272 2795ft 0kts
09-Oct-18 12:02 35.057040 -118.158025 272 2795ft 0kts
09-Oct-18 12:03 35.057040 -118.158025 272 2795ft 0kts
09-Oct-18 12:04 35.057040 -118.158025 272 2795ft 0kts
09-Oct-18 12:05 35.057040 -118.158025 272 2795ft 0kts

Navigation Log

Ident Type
1. KBFL Airport
2. KMHV Airport